createdAt,value
2018-02-27T00:01:02.746Z,9.50
2018-02-27T00:03:33.308Z,9.05
2018-02-27T00:06:04.542Z,8.98
2018-02-27T00:08:34.367Z,8.48
2018-02-27T00:11:06.388Z,8.95
2018-02-27T00:13:36.261Z,9.30
2018-02-27T00:16:06.553Z,7.10
2018-02-27T00:18:36.432Z,9.88
2018-02-27T00:21:11.283Z,8.90
2018-02-27T00:23:42.294Z,8.77
2018-02-27T00:26:12.112Z,8.25
2018-02-27T00:28:41.922Z,9.60
2018-02-27T00:31:11.481Z,9.05
2018-02-27T00:33:41.290Z,8.20
2018-02-27T00:36:11.089Z,8.32
2018-02-27T00:38:40.898Z,8.18
2018-02-27T00:41:10.728Z,8.52
2018-02-27T00:43:40.522Z,9.68
2018-02-27T00:46:10.324Z,9.18
2018-02-27T00:48:40.128Z,9.73
2018-02-27T00:51:09.934Z,8.45
2018-02-27T00:53:39.746Z,8.88
2018-02-27T00:56:09.590Z,8.98
2018-02-27T00:58:39.637Z,8.60
2018-02-27T01:01:09.516Z,7.78
2018-02-27T01:03:39.328Z,9.18
2018-02-27T01:06:09.146Z,8.45
2018-02-27T01:08:39.231Z,8.77
2018-02-27T01:11:09.045Z,7.85
2018-02-27T01:13:38.903Z,8.68
2018-02-27T01:16:08.721Z,9.48
2018-02-27T01:18:38.820Z,8.85
2018-02-27T01:21:08.479Z,8.63
2018-02-27T01:23:39.244Z,9.07
2018-02-27T01:26:10.889Z,9.45
2018-02-27T01:28:40.588Z,9.20
2018-02-27T01:31:10.496Z,9.05
2018-02-27T01:33:40.191Z,8.98
2018-02-27T01:36:10.229Z,7.75
2018-02-27T01:38:40.070Z,9.63
2018-02-27T01:41:10.001Z,10.02
2018-02-27T01:43:39.789Z,7.40
2018-02-27T01:46:09.622Z,9.55
2018-02-27T01:48:39.470Z,9.98
2018-02-27T01:51:15.589Z,9.82
2018-02-27T01:53:45.849Z,10.68
2018-02-27T01:56:15.659Z,10.57
2018-02-27T01:58:45.488Z,11.27
2018-02-27T02:01:15.302Z,9.80
2018-02-27T02:03:45.112Z,11.38
2018-02-27T02:06:14.938Z,9.57
2018-02-27T02:08:44.771Z,11.18
2018-02-27T02:11:14.582Z,10.00
2018-02-27T02:13:44.401Z,9.65
2018-02-27T02:16:14.212Z,10.25
2018-02-27T02:18:44.042Z,10.68
2018-02-27T02:21:13.891Z,10.10
2018-02-27T02:23:43.707Z,10.60
2018-02-27T02:26:13.532Z,11.27
2018-02-27T02:28:43.558Z,10.00
2018-02-27T02:31:13.352Z,9.50
2018-02-27T02:33:43.181Z,9.95
2018-02-27T02:36:13.105Z,10.77
2018-02-27T02:38:42.915Z,10.25
2018-02-27T02:41:12.733Z,10.40
2018-02-27T02:43:42.313Z,9.25
2018-02-27T02:46:12.361Z,9.45
2018-02-27T02:48:42.697Z,9.60
2018-02-27T02:51:12.593Z,9.40
2018-02-27T02:53:42.403Z,10.52
2018-02-27T02:56:12.268Z,9.60
2018-02-27T02:58:42.080Z,10.25
2018-02-27T03:01:11.879Z,9.52
2018-02-27T03:03:41.699Z,10.32
2018-02-27T03:06:11.510Z,10.38
2018-02-27T03:08:41.357Z,9.90
2018-02-27T03:11:11.175Z,9.40
2018-02-27T03:13:40.998Z,10.10
2018-02-27T03:16:10.802Z,8.93
2018-02-27T03:18:40.370Z,9.85
2018-02-27T03:21:10.207Z,9.63
2018-02-27T03:23:40.021Z,9.88
2018-02-27T03:26:09.841Z,8.07
2018-02-27T03:28:39.654Z,7.90
2018-02-27T03:31:09.467Z,9.15
2018-02-27T03:33:39.303Z,8.25
2018-02-27T03:36:09.146Z,9.77
2018-02-27T03:38:38.944Z,8.05
2018-02-27T03:41:08.949Z,9.15
2018-02-27T03:43:38.733Z,9.25
2018-02-27T03:46:08.542Z,9.50
2018-02-27T03:48:38.571Z,8.70
2018-02-27T03:51:08.399Z,9.00
2018-02-27T03:53:38.194Z,8.60
2018-02-27T03:56:08.000Z,9.50
2018-02-27T03:58:37.811Z,10.10
2018-02-27T04:01:07.621Z,8.55
2018-02-27T04:03:37.433Z,9.02
2018-02-27T04:06:07.248Z,8.95
2018-02-27T04:08:37.053Z,9.60
2018-02-27T04:11:06.865Z,9.35
2018-02-27T04:13:36.494Z,10.02
2018-02-27T04:16:06.311Z,9.27
2018-02-27T04:18:36.123Z,8.82
2018-02-27T04:21:06.003Z,10.45
2018-02-27T04:23:35.827Z,9.13
2018-02-27T04:26:05.636Z,9.50
2018-02-27T04:28:35.452Z,9.07
2018-02-27T04:31:05.282Z,8.80
2018-02-27T04:33:35.097Z,10.02
2018-02-27T04:36:04.897Z,9.30
2018-02-27T04:38:34.723Z,9.70
2018-02-27T04:41:04.538Z,10.30
2018-02-27T04:43:34.360Z,10.40
2018-02-27T04:46:04.162Z,8.40
2018-02-27T04:48:33.974Z,9.32
2018-02-27T04:51:03.936Z,10.43
2018-02-27T04:53:33.752Z,8.68
2018-02-27T04:56:03.579Z,9.85
2018-02-27T04:58:33.569Z,9.63
2018-02-27T05:01:03.399Z,10.15
2018-02-27T05:03:33.233Z,9.55
2018-02-27T05:06:03.037Z,10.43
2018-02-27T05:08:32.893Z,10.45
2018-02-27T05:11:02.688Z,8.82
2018-02-27T05:13:32.507Z,10.30
2018-02-27T05:16:02.088Z,9.30
2018-02-27T05:18:32.026Z,8.52
2018-02-27T05:21:01.837Z,10.02
2018-02-27T05:23:34.011Z,10.38
2018-02-27T05:26:03.953Z,10.35
2018-02-27T05:28:33.806Z,9.20
2018-02-27T05:31:04.250Z,8.85
2018-02-27T05:33:34.102Z,10.07
2018-02-27T05:36:03.926Z,11.05
2018-02-27T05:38:33.738Z,8.75
2018-02-27T05:41:12.572Z,9.38
2018-02-27T05:43:43.741Z,9.25
2018-02-27T05:46:14.390Z,9.77
2018-02-27T05:48:44.612Z,11.15
2018-02-27T05:51:16.357Z,9.88
2018-02-27T05:53:49.801Z,10.98
2018-02-27T05:56:19.612Z,10.32
2018-02-27T05:58:49.253Z,9.55
2018-02-27T06:01:19.193Z,10.50
2018-02-27T06:03:49.092Z,10.38
2018-02-27T06:06:19.085Z,10.43
2018-02-27T06:08:48.985Z,10.40
2018-02-27T06:11:18.851Z,8.57
2018-02-27T06:13:49.908Z,9.52
2018-02-27T06:16:20.306Z,10.63
2018-02-27T06:18:50.170Z,9.50
2018-02-27T06:21:20.360Z,9.90
2018-02-27T06:23:50.050Z,8.38
2018-02-27T06:26:20.008Z,9.65
2018-02-27T06:28:49.906Z,10.18
2018-02-27T06:31:19.805Z,8.88
2018-02-27T06:33:50.183Z,9.20
2018-02-27T06:40:48.538Z,8.60
2018-02-27T06:43:33.662Z,9.27
2018-02-27T06:46:07.125Z,9.55
2018-02-27T06:48:37.483Z,10.15
2018-02-27T06:51:07.802Z,8.57
2018-02-27T06:53:37.690Z,10.00
2018-02-27T06:56:08.011Z,8.52
2018-02-27T06:58:38.216Z,11.00
2018-02-27T07:01:08.298Z,10.57
2018-02-27T07:03:38.230Z,8.95
2018-02-27T07:06:08.288Z,10.10
2018-02-27T07:08:38.440Z,9.20
2018-02-27T07:11:08.287Z,10.43
2018-02-27T07:13:38.214Z,8.98
2018-02-27T07:16:08.041Z,9.80
2018-02-27T07:18:37.958Z,11.43
2018-02-27T07:21:07.774Z,7.95
2018-02-27T07:23:37.589Z,9.00
2018-02-27T07:26:07.510Z,11.50
2018-02-27T07:28:37.419Z,10.95
2018-02-27T07:31:07.290Z,11.02
2018-02-27T07:33:36.878Z,11.90
2018-02-27T07:36:06.703Z,11.70
2018-02-27T07:38:36.530Z,9.75
2018-02-27T07:41:05.860Z,11.50
2018-02-27T07:43:35.716Z,12.70
2018-02-27T07:46:05.546Z,11.50
2018-02-27T07:48:35.507Z,11.25
2018-02-27T07:51:05.479Z,11.60
2018-02-27T07:53:35.415Z,10.57
2018-02-27T07:56:05.437Z,10.88
2018-02-27T07:58:35.460Z,11.07
2018-02-27T08:01:05.336Z,11.45
2018-02-27T08:03:35.206Z,13.02
2018-02-27T08:06:05.317Z,12.45
2018-02-27T08:08:35.342Z,12.60
2018-02-27T08:11:05.191Z,10.90
2018-02-27T08:13:35.121Z,10.32
2018-02-27T08:16:05.005Z,11.73
2018-02-27T08:18:34.932Z,12.25
2018-02-27T08:21:04.781Z,12.52
2018-02-27T08:23:34.368Z,11.82
2018-02-27T08:26:04.212Z,12.40
2018-02-27T08:28:34.129Z,11.93
2018-02-27T08:31:04.256Z,11.20
2018-02-27T08:33:34.325Z,11.70
2018-02-27T08:36:04.337Z,11.45
2018-02-27T08:38:34.312Z,12.88
2018-02-27T08:41:04.316Z,13.77
2018-02-27T08:43:34.287Z,12.75
2018-02-27T08:46:04.285Z,12.80
2018-02-27T08:48:34.164Z,13.25
2018-02-27T08:51:03.987Z,13.57
2018-02-27T08:53:33.807Z,11.90
2018-02-27T08:56:03.686Z,12.48
2018-02-27T08:58:33.664Z,12.93
2018-02-27T09:01:03.515Z,13.43
2018-02-27T09:03:33.480Z,13.20
2018-02-27T09:06:03.312Z,11.88
2018-02-27T09:08:34.107Z,12.85
2018-02-27T09:11:03.974Z,11.80
2018-02-27T09:13:33.832Z,14.82
2018-02-27T09:16:03.671Z,13.27
2018-02-27T09:18:33.535Z,13.50
2018-02-27T09:21:03.357Z,14.25
2018-02-27T09:23:33.233Z,13.95
2018-02-27T09:26:03.052Z,14.50
2018-02-27T09:28:32.870Z,13.60
2018-02-27T09:31:02.825Z,13.52
2018-02-27T09:33:32.667Z,14.32
2018-02-27T09:36:02.658Z,13.15
2018-02-27T09:38:32.575Z,14.20
2018-02-27T09:41:02.586Z,14.32
2018-02-27T09:43:32.491Z,14.20
2018-02-27T09:46:02.360Z,13.95
2018-02-27T09:48:32.456Z,13.40
2018-02-27T09:51:02.321Z,13.02
2018-02-27T09:53:32.166Z,13.02
2018-02-27T09:56:01.984Z,13.82
2018-02-27T09:58:31.857Z,13.13
2018-02-27T10:01:01.673Z,12.60
2018-02-27T10:03:31.576Z,12.40
2018-02-27T10:06:01.152Z,12.85
2018-02-27T10:08:31.008Z,12.20
2018-02-27T10:11:00.976Z,12.50
2018-02-27T10:13:31.087Z,12.25
2018-02-27T10:16:01.395Z,14.07
2018-02-27T10:18:31.297Z,13.27
2018-02-27T10:21:01.397Z,12.25
2018-02-27T10:23:31.275Z,12.35
2018-02-27T10:26:01.102Z,12.13
2018-02-27T10:28:31.012Z,11.48
2018-02-27T10:31:01.001Z,13.55
2018-02-27T10:33:31.038Z,13.23
2018-02-27T10:36:00.994Z,12.95
2018-02-27T10:38:31.243Z,12.93
2018-02-27T10:41:01.233Z,12.70
2018-02-27T10:43:31.185Z,12.15
2018-02-27T10:46:01.085Z,12.32
2018-02-27T10:48:30.943Z,12.88
2018-02-27T10:51:00.963Z,11.75
2018-02-27T10:53:33.152Z,13.40
2018-02-27T10:56:03.211Z,11.50
2018-02-27T10:58:33.267Z,11.12
2018-02-27T11:01:02.928Z,13.50
2018-02-27T11:03:33.010Z,12.85
2018-02-27T11:06:03.304Z,11.00
2018-02-27T11:08:33.678Z,11.10
2018-02-27T11:11:03.745Z,11.70
2018-02-27T11:13:33.619Z,11.35
2018-02-27T11:16:04.317Z,11.68
2018-02-27T11:18:34.724Z,11.95
2018-02-27T11:21:04.794Z,12.23
2018-02-27T11:23:35.554Z,12.77
2018-02-27T11:26:05.948Z,12.93
2018-02-27T11:28:35.883Z,11.75
2018-02-27T11:31:05.831Z,11.93
2018-02-27T11:33:35.343Z,12.98
2018-02-27T11:36:04.906Z,11.40
2018-02-27T11:38:35.109Z,11.60
2018-02-27T11:41:04.982Z,11.45
2018-02-27T11:43:34.821Z,12.60
2018-02-27T11:46:04.696Z,13.20
2018-02-27T11:48:34.620Z,11.88
2018-02-27T11:51:04.145Z,11.73
2018-02-27T11:53:33.966Z,13.15
2018-02-27T11:56:03.937Z,12.02
2018-02-27T11:58:37.541Z,12.48
2018-02-27T12:01:07.418Z,12.73
2018-02-27T12:03:37.288Z,11.50
2018-02-27T12:06:07.822Z,12.85
2018-02-27T12:08:37.676Z,13.00
2018-02-27T12:11:07.546Z,11.63
2018-02-27T12:13:37.401Z,11.27
2018-02-27T12:16:07.432Z,11.60
2018-02-27T12:18:37.422Z,11.88
2018-02-27T12:21:07.973Z,12.02
2018-02-27T12:23:38.718Z,12.43
2018-02-27T12:26:09.610Z,13.90
2018-02-27T12:28:39.538Z,12.50
2018-02-27T12:31:11.548Z,11.15
2018-02-27T12:33:41.925Z,11.02
2018-02-27T12:38:46.771Z,10.55
2018-02-27T12:41:16.921Z,12.13
2018-02-27T12:43:46.899Z,11.68
2018-02-27T12:46:16.854Z,12.02
2018-02-27T12:48:46.876Z,12.18
2018-02-27T12:51:17.553Z,12.20
2018-02-27T12:53:47.440Z,11.80
2018-02-27T12:56:17.798Z,10.45
2018-02-27T12:58:47.872Z,12.55
2018-02-27T13:01:17.895Z,10.60
2018-02-27T13:03:47.873Z,11.38
2018-02-27T13:06:17.711Z,12.73
2018-02-27T13:08:47.690Z,10.27
2018-02-27T13:11:17.636Z,11.73
2018-02-27T13:13:47.789Z,11.60
2018-02-27T13:16:18.334Z,11.68
2018-02-27T13:18:48.291Z,12.63
2018-02-27T13:21:18.123Z,12.65
2018-02-27T13:23:48.062Z,12.13
2018-02-27T13:26:18.065Z,10.15
2018-02-27T13:28:52.418Z,11.85
2018-02-27T13:31:22.822Z,11.88
2018-02-27T13:33:53.519Z,10.50
2018-02-27T13:36:23.905Z,11.70
2018-02-27T13:38:54.782Z,12.18
2018-02-27T13:41:24.688Z,11.85
2018-02-27T13:43:55.038Z,11.85
2018-02-27T13:46:26.423Z,12.32
2018-02-27T13:49:03.999Z,12.43
2018-02-27T13:51:26.666Z,11.12
2018-02-27T13:53:57.678Z,10.95
2018-02-27T13:56:27.618Z,10.82
2018-02-27T13:58:57.574Z,10.65
2018-02-27T14:01:27.501Z,12.18
2018-02-27T14:03:57.884Z,11.77
2018-02-27T14:06:27.877Z,11.35
2018-02-27T14:08:57.794Z,11.70
2018-02-27T14:11:28.062Z,11.93
2018-02-27T14:13:58.426Z,12.77
2018-02-27T14:16:28.602Z,11.55
2018-02-27T14:18:58.554Z,13.62
2018-02-27T14:21:28.295Z,11.30
2018-02-27T14:23:59.136Z,11.77
2018-02-27T14:26:29.145Z,11.30
2018-02-27T14:28:59.032Z,12.02
2018-02-27T14:31:28.773Z,9.90
2018-02-27T14:33:58.763Z,11.98
2018-02-27T14:36:28.433Z,10.93
2018-02-27T14:38:58.501Z,11.75
2018-02-27T14:41:28.458Z,11.40
2018-02-27T14:43:58.575Z,10.65
2018-02-27T14:46:28.457Z,12.10
2018-02-27T14:48:58.393Z,12.95
2018-02-27T14:51:28.339Z,12.25
2018-02-27T14:53:58.379Z,10.77
2018-02-27T14:56:28.688Z,11.95
2018-02-27T14:58:58.631Z,12.48
2018-02-27T15:01:29.016Z,12.07
2018-02-27T15:03:58.894Z,11.07
2018-02-27T15:06:30.083Z,11.70
2018-02-27T15:09:00.046Z,12.60
2018-02-27T15:11:31.680Z,11.70
2018-02-27T15:14:01.570Z,11.52
2018-02-27T15:16:34.483Z,12.20
2018-02-27T15:19:04.317Z,12.85
2018-02-27T15:21:35.686Z,11.98
2018-02-27T15:24:05.575Z,11.60
2018-02-27T15:26:38.548Z,13.27
2018-02-27T15:29:09.254Z,11.02
2018-02-27T15:31:40.107Z,12.80
2018-02-27T15:34:10.069Z,12.23
2018-02-27T15:36:40.285Z,10.00
2018-02-27T15:39:17.250Z,12.43
2018-02-27T15:41:47.141Z,12.48
2018-02-27T15:44:17.022Z,12.00
2018-02-27T15:46:47.486Z,11.10
2018-02-27T15:49:17.313Z,11.45
2018-02-27T15:51:48.376Z,13.93
2018-02-27T15:54:18.307Z,12.15
2018-02-27T15:56:48.158Z,12.85
2018-02-27T15:59:18.969Z,11.77
2018-02-27T16:01:52.806Z,11.82
2018-02-27T16:04:30.496Z,11.75
2018-02-27T16:07:02.097Z,11.70
2018-02-27T16:09:32.844Z,12.65
2018-02-27T16:12:02.828Z,11.23
2018-02-27T16:14:32.774Z,10.55
2018-02-27T16:17:02.719Z,11.43
2018-02-27T16:19:32.574Z,11.57
2018-02-27T16:22:02.396Z,10.93
2018-02-27T16:24:32.243Z,10.73
2018-02-27T16:27:02.053Z,10.05
2018-02-27T16:29:32.050Z,13.05
2018-02-27T16:32:01.864Z,11.10
2018-02-27T16:34:31.660Z,11.75
2018-02-27T16:37:01.498Z,9.77
2018-02-27T16:39:31.378Z,11.15
2018-02-27T16:42:01.170Z,12.93
2018-02-27T16:44:31.007Z,9.98
2018-02-27T16:47:00.825Z,10.32
2018-02-27T16:49:30.617Z,11.50
2018-02-27T16:52:01.057Z,12.65
2018-02-27T16:54:30.911Z,11.07
2018-02-27T16:57:00.741Z,10.50
2018-02-27T16:59:34.474Z,10.05
2018-02-27T17:02:04.277Z,9.52
2018-02-27T17:04:34.263Z,11.32
2018-02-27T17:07:04.165Z,10.60
2018-02-27T17:09:34.245Z,9.77
2018-02-27T17:12:04.084Z,11.40
2018-02-27T17:14:34.045Z,11.60
2018-02-27T17:17:03.914Z,9.50
2018-02-27T17:19:33.859Z,11.65
2018-02-27T17:22:04.556Z,10.98
2018-02-27T17:24:34.444Z,11.12
2018-02-27T17:27:04.270Z,11.30
2018-02-27T17:29:34.146Z,10.57
2018-02-27T17:32:04.013Z,10.50
2018-02-27T17:34:33.871Z,11.75
2018-02-27T17:37:03.877Z,11.00
2018-02-27T17:39:33.715Z,13.05
2018-02-27T17:42:03.535Z,11.32
2018-02-27T17:44:33.716Z,11.57
2018-02-27T17:47:03.530Z,10.75
2018-02-27T17:49:39.412Z,12.70
2018-02-27T17:52:10.313Z,11.57
2018-02-27T17:54:40.129Z,9.93
2018-02-27T17:57:10.091Z,11.30
2018-02-27T17:59:40.046Z,12.43
2018-02-27T18:02:13.732Z,11.10
2018-02-27T18:04:43.408Z,13.05
2018-02-27T18:07:13.248Z,11.50
2018-02-27T18:09:43.065Z,10.75
2018-02-27T18:12:12.882Z,11.05
2018-02-27T18:14:42.720Z,11.15
2018-02-27T18:17:12.546Z,10.60
2018-02-27T18:19:44.420Z,10.73
2018-02-27T18:22:15.336Z,11.35
2018-02-27T18:24:45.159Z,10.48
2018-02-27T18:27:15.015Z,12.55
2018-02-27T18:29:45.895Z,12.50
2018-02-27T18:32:15.905Z,9.95
2018-02-27T18:34:45.911Z,10.60
2018-02-27T18:37:15.734Z,11.00
2018-02-27T18:39:45.683Z,11.55
2018-02-27T18:42:16.244Z,11.77
2018-02-27T18:44:46.157Z,10.82
2018-02-27T18:47:16.876Z,12.23
2018-02-27T18:49:46.894Z,11.90
2018-02-27T18:52:16.885Z,11.93
2018-02-27T18:54:46.843Z,11.02
2018-02-27T18:57:17.188Z,13.68
2018-02-27T18:59:51.779Z,11.55
2018-02-27T19:02:24.976Z,12.30
2018-02-27T19:05:00.250Z,11.80
2018-02-27T19:07:31.127Z,11.40
2018-02-27T19:10:01.029Z,11.48
2018-02-27T19:12:30.918Z,11.90
2018-02-27T19:15:01.094Z,11.27
2018-02-27T19:17:31.601Z,11.50
2018-02-27T19:20:01.689Z,11.25
2018-02-27T19:22:31.565Z,11.95
2018-02-27T19:25:01.405Z,10.70
2018-02-27T19:27:31.540Z,10.15
2018-02-27T19:30:01.788Z,11.63
2018-02-27T19:32:32.080Z,13.10
2018-02-27T19:35:03.117Z,11.52
2018-02-27T19:37:33.411Z,10.73
2018-02-27T19:40:03.702Z,11.07
2018-02-27T19:42:33.786Z,11.40
2018-02-27T19:45:03.988Z,10.65
2018-02-27T19:47:34.518Z,11.63
2018-02-27T19:50:04.671Z,11.43
2018-02-27T19:52:34.837Z,11.50
2018-02-27T19:55:05.067Z,11.12
2018-02-27T19:57:35.137Z,9.95
2018-02-27T20:00:05.615Z,10.60
2018-02-27T20:02:35.894Z,11.20
2018-02-27T20:05:05.947Z,11.07
2018-02-27T20:07:36.021Z,11.25
2018-02-27T20:10:06.028Z,11.02
2018-02-27T20:12:36.353Z,10.25
2018-02-27T20:15:06.454Z,10.73
2018-02-27T20:17:42.030Z,12.00
2018-02-27T20:20:12.006Z,11.40
2018-02-27T20:22:47.261Z,11.38
2018-02-27T20:25:17.590Z,11.02
2018-02-27T20:27:47.538Z,10.88
2018-02-27T20:30:17.667Z,10.52
2018-02-27T20:32:48.171Z,11.23
2018-02-27T20:35:18.360Z,11.70
2018-02-27T20:37:54.292Z,10.60
2018-02-27T20:40:24.282Z,12.10
2018-02-27T20:42:54.161Z,11.40
2018-02-27T20:45:24.206Z,11.27
2018-02-27T20:47:54.561Z,11.32
2018-02-27T20:50:28.358Z,10.57
2018-02-27T20:52:58.341Z,12.32
2018-02-27T20:55:28.379Z,11.18
2018-02-27T20:57:58.548Z,12.32
2018-02-27T21:00:28.509Z,11.15
2018-02-27T21:02:58.890Z,11.55
2018-02-27T21:05:28.913Z,11.27
2018-02-27T21:07:59.420Z,11.90
2018-02-27T21:10:29.340Z,13.98
2018-02-27T21:12:59.264Z,11.63
2018-02-27T21:15:29.097Z,12.50
2018-02-27T21:17:59.039Z,12.35
2018-02-27T21:20:33.400Z,10.80
2018-02-27T21:23:03.521Z,12.60
2018-02-27T21:25:33.843Z,10.90
2018-02-27T21:28:08.709Z,11.90
2018-02-27T21:30:38.625Z,11.70
2018-02-27T21:33:08.716Z,12.45
2018-02-27T21:35:38.781Z,11.07
2018-02-27T21:38:08.663Z,11.90
2018-02-27T21:40:39.902Z,10.20
2018-02-27T21:43:10.241Z,11.60
2018-02-27T21:45:40.418Z,11.82
2018-02-27T21:48:11.752Z,12.30
2018-02-27T21:50:41.960Z,12.98
2018-02-27T21:53:13.132Z,10.63
2018-02-27T21:55:43.330Z,12.15
2018-02-27T21:58:17.468Z,11.00
2018-02-27T22:00:48.399Z,11.05
2018-02-27T22:03:18.233Z,11.50
2018-02-27T22:05:49.016Z,11.15
2018-02-27T22:08:19.655Z,10.15
2018-02-27T22:10:50.018Z,12.00
2018-02-27T22:13:20.201Z,10.80
2018-02-27T22:15:54.131Z,11.52
2018-02-27T22:18:24.115Z,11.18
2018-02-27T22:20:54.082Z,11.32
2018-02-27T22:23:24.035Z,11.57
2018-02-27T22:25:53.868Z,11.73
2018-02-27T22:28:24.562Z,10.30
2018-02-27T22:30:54.643Z,11.82
2018-02-27T22:33:24.933Z,11.25
2018-02-27T22:35:54.770Z,11.80
2018-02-27T22:38:24.750Z,10.70
2018-02-27T22:40:54.672Z,11.60
2018-02-27T22:43:24.502Z,12.37
2018-02-27T22:45:54.419Z,11.88
2018-02-27T22:48:24.288Z,12.27
2018-02-27T22:50:54.110Z,12.00
2018-02-27T22:53:23.940Z,10.30
2018-02-27T22:55:53.860Z,12.07
2018-02-27T22:58:23.944Z,11.00
2018-02-27T23:00:53.777Z,12.80
2018-02-27T23:03:23.057Z,11.98
2018-02-27T23:05:52.875Z,11.18
2018-02-27T23:08:22.715Z,10.93
2018-02-27T23:10:52.540Z,11.63
2018-02-27T23:13:22.661Z,12.00
2018-02-27T23:15:52.209Z,12.90
2018-02-27T23:18:22.055Z,13.68
2018-02-27T23:20:51.857Z,11.02
2018-02-27T23:23:21.660Z,11.40
2018-02-27T23:26:01.268Z,11.50
2018-02-27T23:28:35.438Z,11.18
2018-02-27T23:31:05.534Z,10.93
2018-02-27T23:33:36.777Z,11.95
2018-02-27T23:36:06.882Z,12.63
2018-02-27T23:38:36.877Z,10.57
2018-02-27T23:41:07.444Z,10.30
2018-02-27T23:43:38.174Z,12.37
2018-02-27T23:46:08.403Z,10.43
2018-02-27T23:48:38.331Z,11.35
2018-02-27T23:51:08.640Z,11.55
2018-02-27T23:53:38.872Z,10.70
2018-02-27T23:56:08.671Z,10.70
2018-02-27T23:58:39.188Z,10.32
